Time;durP1;ratioP1;P1;durP2;ratioP2;P2;SDS_P1;SDS_P2;PMS_P1;PMS_P2;Temp;Humidity;BMP_temperature;BMP_pressure;BME280_temperature;BME280_humidity;BME280_pressure;Samples;Min_cycle;Max_cycle;Signal;HPM_P1;HPM_P2
2023/12/18 00:01:26;;;;;;;10.50;6.25;;;0.20;59.40;;;;;;4976754;28;46807;-68
2023/12/18 00:03:51;;;;;;;9.30;5.32;;;0.20;59.40;;;;;;4970678;28;46661;-68
2023/12/18 00:06:17;;;;;;;11.23;5.90;;;0.20;59.40;;;;;;4974043;28;45950;-68
2023/12/18 00:08:42;;;;;;;12.43;6.63;;;0.20;59.30;;;;;;4969689;28;46481;-67
2023/12/18 00:11:08;;;;;;;13.63;6.97;;;0.20;59.40;;;;;;4970938;28;46583;-69
2023/12/18 00:13:33;;;;;;;11.77;6.47;;;0.20;59.20;;;;;;4971452;28;46007;-68
2023/12/18 00:15:59;;;;;;;9.47;6.20;;;0.20;59.30;;;;;;4968422;28;46691;-70
2023/12/18 00:18:25;;;;;;;12.97;6.60;;;0.20;59.40;;;;;;4972153;28;45881;-69
2023/12/18 00:20:52;;;;;;;9.40;5.77;;;0.10;59.50;;;;;;4973084;28;45925;-67
2023/12/18 00:23:18;;;;;;;10.13;6.40;;;0.10;59.60;;;;;;4968636;28;47169;-69
2023/12/18 00:25:43;;;;;;;11.40;6.47;;;0.00;59.80;;;;;;4971165;28;46548;-68
2023/12/18 00:28:09;;;;;;;10.50;6.50;;;0.00;59.90;;;;;;4970881;28;46376;-69
2023/12/18 00:30:34;;;;;;;9.37;5.87;;;0.00;60.00;;;;;;4970903;28;46449;-68
2023/12/18 00:33:01;;;;;;;9.73;5.83;;;0.00;59.90;;;;;;4967420;28;46677;-69
2023/12/18 00:35:26;;;;;;;9.30;5.53;;;-0.10;60.00;;;;;;4977050;28;46545;-68
2023/12/18 00:37:52;;;;;;;9.20;5.20;;;-0.10;60.00;;;;;;4967878;28;46820;-69
2023/12/18 00:40:17;;;;;;;12.07;6.23;;;-0.10;60.10;;;;;;4969873;28;47002;-68
2023/12/18 00:42:43;;;;;;;8.83;5.33;;;-0.10;60.20;;;;;;4971319;28;46547;-70
2023/12/18 00:45:08;;;;;;;8.03;5.50;;;-0.10;60.30;;;;;;4971840;28;46357;-68
2023/12/18 00:47:34;;;;;;;21.73;6.30;;;-0.10;60.40;;;;;;4969375;28;46669;-66
2023/12/18 00:50:00;;;;;;;9.52;5.03;;;-0.10;60.40;;;;;;4972860;28;46686;-68
2023/12/18 00:52:25;;;;;;;7.93;5.17;;;-0.20;60.30;;;;;;4968781;28;47602;-68
2023/12/18 00:54:51;;;;;;;10.73;6.03;;;-0.10;60.30;;;;;;4969431;28;46457;-68
2023/12/18 00:57:17;;;;;;;9.30;5.20;;;-0.10;60.20;;;;;;4971959;28;46461;-68
2023/12/18 00:59:42;;;;;;;9.17;5.63;;;0.00;60.30;;;;;;4969491;28;46476;-68
2023/12/18 01:02:08;;;;;;;8.53;5.07;;;-0.10;60.10;;;;;;4966018;28;46374;-67
2023/12/18 01:04:35;;;;;;;8.43;5.10;;;-0.10;60.00;;;;;;4968748;28;46410;-71
2023/12/18 01:07:00;;;;;;;10.00;5.35;;;0.00;60.20;;;;;;4971577;28;46692;-67
2023/12/18 01:09:26;;;;;;;7.00;4.63;;;0.00;60.00;;;;;;4968275;28;47086;-68
2023/12/18 01:11:51;;;;;;;9.97;5.43;;;0.10;60.10;;;;;;4966201;28;46537;-68
2023/12/18 01:14:17;;;;;;;9.50;5.77;;;0.00;60.00;;;;;;4969467;28;46518;-68
2023/12/18 01:16:43;;;;;;;8.33;5.33;;;0.00;60.00;;;;;;4967490;28;46730;-68
2023/12/18 01:19:08;;;;;;;12.57;5.63;;;0.00;60.00;;;;;;4968725;28;46478;-68
2023/12/18 01:21:34;;;;;;;11.87;5.73;;;0.10;60.00;;;;;;4967717;28;47042;-67
2023/12/18 01:24:00;;;;;;;10.37;6.03;;;0.10;60.00;;;;;;4968883;28;46364;-68
2023/12/18 01:26:25;;;;;;;10.23;5.43;;;0.10;60.00;;;;;;4969405;28;46165;-67
2023/12/18 01:28:51;;;;;;;9.83;5.20;;;0.10;60.00;;;;;;4968403;28;46644;-68
2023/12/18 01:31:23;;;;;;;9.13;5.10;;;0.10;60.00;;;;;;4967689;28;46414;-68
2023/12/18 01:33:51;;;;;;;8.75;5.10;;;0.00;60.10;;;;;;4985039;28;46614;-68
2023/12/18 01:36:17;;;;;;;7.10;4.60;;;0.00;60.20;;;;;;4970722;28;46812;-68
2023/12/18 01:38:43;;;;;;;8.83;5.43;;;0.00;60.30;;;;;;4969532;28;46533;-69
2023/12/18 01:41:08;;;;;;;6.33;4.50;;;0.00;60.40;;;;;;4969208;28;46954;-67
2023/12/18 01:43:34;;;;;;;7.37;5.23;;;0.00;60.40;;;;;;4968143;28;46388;-68
2023/12/18 01:46:01;;;;;;;8.00;5.30;;;0.00;60.50;;;;;;4968823;28;46589;-69
2023/12/18 01:48:27;;;;;;;8.40;5.50;;;0.00;60.50;;;;;;4970257;28;46347;-69
2023/12/18 01:50:55;;;;;;;7.03;4.28;;;0.00;60.50;;;;;;4968930;28;46826;-69
2023/12/18 01:53:26;;;;;;;7.43;4.90;;;-0.10;60.50;;;;;;4966345;28;46702;-68
2023/12/18 01:55:52;;;;;;;9.50;4.95;;;-0.10;60.50;;;;;;4966101;28;46532;-68
2023/12/18 01:58:18;;;;;;;10.60;5.07;;;-0.10;60.50;;;;;;4967816;28;46498;-68
2023/12/18 02:00:45;;;;;;;7.20;4.72;;;-0.10;60.50;;;;;;4972060;28;46513;-68
2023/12/18 02:03:10;;;;;;;9.48;5.10;;;-0.10;60.50;;;;;;4970633;28;46409;-69
2023/12/18 02:05:37;;;;;;;12.97;5.40;;;0.00;60.50;;;;;;4971180;28;46310;-68
2023/12/18 02:08:05;;;;;;;7.18;5.15;;;0.00;60.40;;;;;;4970562;28;45955;-69
2023/12/18 02:10:31;;;;;;;7.85;5.22;;;0.10;60.30;;;;;;4970495;28;46995;-69
2023/12/18 02:12:57;;;;;;;6.68;4.85;;;0.00;60.10;;;;;;4968037;28;46708;-68
2023/12/18 02:15:22;;;;;;;9.43;4.73;;;0.10;60.20;;;;;;4971242;28;46433;-67
2023/12/18 02:17:48;;;;;;;8.50;4.87;;;0.20;60.20;;;;;;4971041;28;46729;-67
2023/12/18 02:20:13;;;;;;;6.10;4.37;;;0.10;60.00;;;;;;4970690;28;46335;-69
2023/12/18 02:22:48;;;;;;;7.70;4.80;;;0.30;60.20;;;;;;4968032;28;46407;-69
2023/12/18 02:25:17;;;;;;;12.30;5.22;;;0.20;60.10;;;;;;4970238;28;46522;-69
2023/12/18 02:27:45;;;;;;;7.28;4.38;;;0.20;60.30;;;;;;4968012;28;46705;-69
2023/12/18 02:30:25;;;;;;;8.52;4.47;;;0.20;60.30;;;;;;4971631;28;46549;-69
2023/12/18 02:32:51;;;;;;;6.60;4.97;;;0.20;60.30;;;;;;4973191;28;46295;-70
2023/12/18 02:35:17;;;;;;;8.65;5.10;;;0.20;60.50;;;;;;4968661;28;46413;-68
2023/12/18 02:37:42;;;;;;;12.80;5.05;;;0.20;60.50;;;;;;4970186;28;46375;-68
2023/12/18 02:40:08;;;;;;;6.60;4.80;;;0.10;60.50;;;;;;4967723;28;46764;-68
2023/12/18 02:42:34;;;;;;;8.70;5.07;;;0.10;60.70;;;;;;4970709;28;46490;-68
2023/12/18 02:45:02;;;;;;;6.97;4.57;;;0.00;60.80;;;;;;4967939;28;46682;-67
2023/12/18 02:47:28;;;;;;;5.25;4.00;;;0.00;60.90;;;;;;4969112;28;46648;-68
2023/12/18 02:49:54;;;;;;;6.67;4.40;;;0.00;61.10;;;;;;4966806;28;47366;-67
2023/12/18 02:52:19;;;;;;;6.13;4.17;;;-0.10;61.10;;;;;;4969779;28;46438;-68
2023/12/18 02:54:45;;;;;;;8.57;4.73;;;-0.10;61.10;;;;;;4970899;28;46598;-68
2023/12/18 02:57:11;;;;;;;10.83;4.77;;;-0.10;61.20;;;;;;4970007;28;46379;-68
2023/12/18 02:59:36;;;;;;;7.73;5.00;;;0.00;61.30;;;;;;4966882;28;46535;-69
2023/12/18 03:02:02;;;;;;;9.10;5.30;;;0.10;61.30;;;;;;4968532;28;46358;-69
2023/12/18 03:04:27;;;;;;;9.13;4.97;;;0.00;61.10;;;;;;4972199;28;46599;-69
2023/12/18 03:06:53;;;;;;;7.50;5.13;;;0.00;61.10;;;;;;4968292;28;46743;-69
2023/12/18 03:09:19;;;;;;;7.57;4.70;;;0.00;61.20;;;;;;4967669;28;46794;-69
2023/12/18 03:11:45;;;;;;;8.13;4.73;;;0.00;61.20;;;;;;4968141;28;46338;-68
2023/12/18 03:14:11;;;;;;;7.03;4.50;;;0.00;61.20;;;;;;4968660;28;46724;-69
2023/12/18 03:16:37;;;;;;;6.60;4.03;;;0.00;61.10;;;;;;4965913;28;46209;-68
2023/12/18 03:19:03;;;;;;;8.65;4.68;;;0.00;61.10;;;;;;4968773;28;46394;-68
2023/12/18 03:21:28;;;;;;;9.47;5.30;;;0.00;61.10;;;;;;4969465;28;46441;-68
2023/12/18 03:23:54;;;;;;;6.00;3.73;;;0.00;61.20;;;;;;4970528;28;46497;-68
2023/12/18 03:26:20;;;;;;;8.60;4.70;;;0.00;61.10;;;;;;4967736;28;46358;-68
2023/12/18 03:28:45;;;;;;;9.90;4.93;;;0.00;61.20;;;;;;4968586;28;47088;-69
2023/12/18 03:31:11;;;;;;;9.13;4.03;;;0.00;61.30;;;;;;4967781;28;46454;-68
2023/12/18 03:33:37;;;;;;;8.05;4.35;;;0.00;61.20;;;;;;4966803;28;46418;-67
2023/12/18 03:36:04;;;;;;;6.30;4.00;;;0.00;61.20;;;;;;4970797;28;46437;-67
2023/12/18 03:38:29;;;;;;;8.38;5.10;;;-0.10;61.10;;;;;;4968798;28;46520;-69
2023/12/18 03:40:55;;;;;;;5.10;3.57;;;-0.10;61.20;;;;;;4968478;28;46478;-67
2023/12/18 03:43:22;;;;;;;7.87;4.47;;;-0.10;61.30;;;;;;4968407;28;45886;-66
2023/12/18 03:45:47;;;;;;;7.47;4.50;;;-0.10;61.40;;;;;;4970408;28;46621;-69
2023/12/18 03:48:13;;;;;;;7.80;4.20;;;-0.10;61.40;;;;;;4965766;28;47103;-68
2023/12/18 03:50:38;;;;;;;6.23;4.23;;;-0.10;61.50;;;;;;4969848;28;46406;-68
2023/12/18 03:53:04;;;;;;;6.27;4.17;;;-0.20;61.70;;;;;;4969110;28;46643;-68
2023/12/18 03:55:29;;;;;;;6.17;3.50;;;-0.20;62.00;;;;;;4969476;28;46379;-67
2023/12/18 03:57:55;;;;;;;6.70;3.70;;;-0.30;62.10;;;;;;4968897;28;46452;-68
2023/12/18 04:00:21;;;;;;;7.07;4.00;;;-0.40;62.40;;;;;;4970018;28;46397;-68
2023/12/18 04:02:46;;;;;;;6.00;3.80;;;-0.40;62.30;;;;;;4966670;28;46434;-68
2023/12/18 04:05:12;;;;;;;9.33;4.17;;;-0.40;62.40;;;;;;4966888;28;46177;-67
2023/12/18 04:07:38;;;;;;;6.30;4.03;;;-0.40;62.40;;;;;;4967302;28;46452;-68
2023/12/18 04:10:04;;;;;;;5.63;3.80;;;-0.40;62.50;;;;;;4969810;28;46472;-67
2023/12/18 04:12:29;;;;;;;6.75;3.80;;;-0.40;62.40;;;;;;4971514;28;46611;-69
2023/12/18 04:14:55;;;;;;;5.40;3.77;;;-0.40;62.30;;;;;;4967507;28;46373;-67
2023/12/18 04:17:21;;;;;;;5.20;4.00;;;-0.40;62.20;;;;;;4967462;28;46184;-67
2023/12/18 04:19:46;;;;;;;5.93;4.07;;;-0.40;62.30;;;;;;4966683;28;46567;-68
2023/12/18 04:22:12;;;;;;;7.20;4.10;;;-0.40;62.30;;;;;;4966015;28;46760;-67
2023/12/18 04:24:37;;;;;;;5.57;3.97;;;-0.40;62.30;;;;;;4970445;28;46209;-67
2023/12/18 04:27:03;;;;;;;6.63;4.30;;;-0.40;62.10;;;;;;4966602;28;46823;-69
2023/12/18 04:29:29;;;;;;;7.17;3.80;;;-0.30;62.00;;;;;;4968968;28;46334;-69
2023/12/18 04:31:54;;;;;;;6.70;4.07;;;-0.30;61.90;;;;;;4966521;28;46634;-67
2023/12/18 04:34:20;;;;;;;8.47;4.67;;;-0.30;61.90;;;;;;4970098;28;46484;-69
2023/12/18 04:36:45;;;;;;;5.90;4.13;;;-0.20;61.90;;;;;;4972500;28;46595;-67
2023/12/18 04:39:11;;;;;;;10.63;4.27;;;-0.20;61.70;;;;;;4972941;28;46445;-68
2023/12/18 04:41:36;;;;;;;5.47;3.93;;;-0.20;61.70;;;;;;4987233;23;46313;-78
2023/12/18 04:44:02;;;;;;;7.30;4.40;;;-0.20;61.80;;;;;;4941731;28;46212;-78
2023/12/18 04:46:34;;;;;;;9.87;4.40;;;-0.10;61.90;;;;;;4954196;28;46423;-79
2023/12/18 04:49:00;;;;;;;6.97;4.07;;;-0.10;61.80;;;;;;4926293;28;46489;-79
2023/12/18 04:51:25;;;;;;;6.93;3.43;;;-0.10;62.00;;;;;;4942230;28;45929;-79
2023/12/18 04:53:50;;;;;;;5.60;3.90;;;-0.10;61.80;;;;;;4943295;28;46298;-79
2023/12/18 04:56:16;;;;;;;6.77;3.00;;;-0.10;61.80;;;;;;4941644;28;46499;-80
2023/12/18 04:58:41;;;;;;;7.23;3.77;;;-0.20;61.90;;;;;;4941906;28;47706;-80
2023/12/18 05:01:09;;;;;;;6.03;3.57;;;-0.20;62.00;;;;;;4939237;28;46395;-78
2023/12/18 05:03:35;;;;;;;9.98;3.63;;;-0.30;61.90;;;;;;4940557;28;46798;-80
2023/12/18 05:06:01;;;;;;;7.93;3.90;;;-0.30;62.20;;;;;;4942546;28;47800;-77
2023/12/18 05:08:27;;;;;;;5.93;3.53;;;-0.30;62.30;;;;;;4941267;28;46975;-79
2023/12/18 05:10:53;;;;;;;5.17;2.90;;;-0.30;62.50;;;;;;4941574;28;46537;-79
2023/12/18 05:13:18;;;;;;;6.10;3.20;;;-0.30;62.30;;;;;;4940436;28;46499;-80
2023/12/18 05:15:44;;;;;;;5.43;3.40;;;-0.40;62.30;;;;;;4941411;28;46865;-78
2023/12/18 05:18:10;;;;;;;5.40;3.37;;;-0.40;62.50;;;;;;4943201;28;46759;-79
2023/12/18 05:20:35;;;;;;;4.37;2.80;;;-0.40;62.40;;;;;;4943397;28;45906;-80
2023/12/18 05:23:01;;;;;;;5.90;3.27;;;-0.50;62.50;;;;;;4940596;28;46186;-79
2023/12/18 05:25:26;;;;;;;7.27;3.13;;;-0.40;62.60;;;;;;4942403;28;46792;-79
2023/12/18 05:27:52;;;;;;;4.77;3.47;;;-0.40;62.60;;;;;;4940406;28;46820;-78
2023/12/18 05:30:17;;;;;;;4.60;2.73;;;-0.50;62.60;;;;;;4940477;28;46494;-78
2023/12/18 05:32:43;;;;;;;7.03;3.17;;;-0.50;62.60;;;;;;4941818;28;46973;-80
2023/12/18 05:35:08;;;;;;;5.73;3.40;;;-0.50;62.60;;;;;;4941104;28;46426;-78
2023/12/18 05:37:34;;;;;;;8.53;3.73;;;-0.50;62.50;;;;;;4939564;28;46442;-80
2023/12/18 05:39:59;;;;;;;4.57;2.93;;;-0.50;62.40;;;;;;4939132;28;46450;-78
2023/12/18 05:42:25;;;;;;;6.57;3.20;;;-0.50;62.40;;;;;;4939660;28;46374;-79
2023/12/18 05:44:50;;;;;;;6.50;3.40;;;-0.50;62.40;;;;;;4939136;28;46494;-80
2023/12/18 05:47:16;;;;;;;6.17;3.77;;;-0.50;62.20;;;;;;4949924;28;46546;-81
2023/12/18 05:49:41;;;;;;;7.17;4.27;;;-0.40;62.20;;;;;;4943464;28;46770;-79
2023/12/18 05:52:07;;;;;;;7.37;4.20;;;-0.40;62.10;;;;;;4941706;28;45870;-78
2023/12/18 05:54:33;;;;;;;9.00;3.88;;;-0.30;62.00;;;;;;4940078;28;47242;-80
2023/12/18 05:56:58;;;;;;;17.27;8.70;;;-0.30;61.80;;;;;;4941277;28;45859;-78
2023/12/18 05:59:24;;;;;;;19.40;8.65;;;-0.20;61.80;;;;;;4938919;28;46565;-78
2023/12/18 06:01:50;;;;;;;16.10;6.87;;;-0.20;61.80;;;;;;4943335;28;46846;-77
2023/12/18 06:04:15;;;;;;;17.03;7.10;;;-0.20;61.70;;;;;;4941622;28;46422;-80
2023/12/18 06:06:41;;;;;;;16.40;7.10;;;-0.20;61.70;;;;;;4942098;28;46733;-78
2023/12/18 06:09:06;;;;;;;10.13;4.47;;;-0.20;61.60;;;;;;4941049;28;46397;-81
2023/12/18 06:11:33;;;;;;;12.43;5.10;;;-0.20;61.80;;;;;;4941758;28;46668;-78
2023/12/18 06:13:59;;;;;;;10.95;5.57;;;-0.10;61.70;;;;;;4942315;28;47924;-78
2023/12/18 06:16:24;;;;;;;10.57;5.73;;;-0.10;61.70;;;;;;4941018;28;46366;-78
2023/12/18 06:18:50;;;;;;;16.87;6.80;;;-0.10;61.70;;;;;;4924374;28;46703;-79
2023/12/18 06:21:15;;;;;;;13.10;5.60;;;-0.10;61.70;;;;;;4940668;28;46593;-78
2023/12/18 06:23:45;;;;;;;12.23;6.47;;;-0.10;61.70;;;;;;4942053;28;46964;-79
2023/12/18 06:26:11;;;;;;;11.65;7.30;;;-0.20;61.90;;;;;;4940218;28;46019;-78
2023/12/18 06:28:37;;;;;;;10.90;6.83;;;-0.20;61.90;;;;;;4930633;28;46479;-79
2023/12/18 06:31:02;;;;;;;8.80;5.23;;;-0.20;62.00;;;;;;4927417;28;46538;-79
2023/12/18 06:33:28;;;;;;;20.90;11.70;;;-0.20;62.10;;;;;;4942397;28;46423;-79
2023/12/18 06:35:54;;;;;;;18.27;9.50;;;-0.20;62.10;;;;;;4944337;28;46383;-79
2023/12/18 06:38:19;;;;;;;13.57;8.07;;;-0.30;62.20;;;;;;4943533;28;46750;-78
2023/12/18 06:40:45;;;;;;;14.20;8.63;;;-0.20;62.30;;;;;;4943833;28;46544;-79
2023/12/18 06:43:10;;;;;;;12.63;7.40;;;-0.30;62.20;;;;;;4944294;28;46653;-78
2023/12/18 06:45:36;;;;;;;15.40;7.50;;;-0.20;62.20;;;;;;4944887;28;46611;-80
2023/12/18 06:48:02;;;;;;;15.70;8.03;;;-0.20;62.20;;;;;;4945133;28;46737;-76
2023/12/18 06:50:28;;;;;;;13.63;7.68;;;-0.20;62.10;;;;;;4926905;28;46713;-78
2023/12/18 06:52:54;;;;;;;13.18;7.03;;;-0.20;62.20;;;;;;4944671;28;46677;-81
2023/12/18 06:55:21;;;;;;;9.93;6.07;;;-0.20;62.00;;;;;;4942598;28;46980;-79
2023/12/18 06:57:46;;;;;;;8.35;4.85;;;-0.20;62.00;;;;;;4946345;28;46477;-80
2023/12/18 07:00:12;;;;;;;8.97;4.40;;;-0.10;62.00;;;;;;4942485;28;46590;-85
2023/12/18 07:02:38;;;;;;;6.05;3.53;;;-0.10;61.80;;;;;;4947645;28;47621;-80
2023/12/18 07:05:04;;;;;;;7.40;4.00;;;-0.10;61.90;;;;;;4943755;28;45910;-81
2023/12/18 07:07:30;;;;;;;5.45;3.22;;;-0.10;61.80;;;;;;4948179;28;46457;-80
2023/12/18 07:09:55;;;;;;;6.73;3.30;;;0.00;61.80;;;;;;4945962;28;46382;-79
2023/12/18 07:12:21;;;;;;;6.30;4.10;;;0.00;61.70;;;;;;4944425;28;46998;-80
2023/12/18 07:14:47;;;;;;;10.67;5.10;;;0.10;61.80;;;;;;4937069;28;46583;-77
2023/12/18 07:17:12;;;;;;;14.40;5.53;;;0.10;61.70;;;;;;4944856;28;45844;-79
2023/12/18 07:19:39;;;;;;;21.40;8.53;;;0.10;61.70;;;;;;4953350;28;46627;-76
2023/12/18 07:22:09;;;;;;;16.88;7.78;;;0.20;61.70;;;;;;4929985;28;48294;-78
2023/12/18 07:24:34;;;;;;;20.13;9.77;;;0.20;61.60;;;;;;4945815;28;46168;-77
2023/12/18 07:27:00;;;;;;;15.00;6.40;;;0.30;61.60;;;;;;4932370;28;45857;-78
2023/12/18 07:29:25;;;;;;;21.90;8.67;;;0.30;61.40;;;;;;4946268;28;46443;-78
2023/12/18 07:31:51;;;;;;;17.33;8.13;;;0.40;61.50;;;;;;4941378;28;46473;-78
2023/12/18 07:34:16;;;;;;;20.40;10.37;;;0.40;61.50;;;;;;4940666;28;46433;-78
2023/12/18 07:36:42;;;;;;;24.63;10.20;;;0.50;61.40;;;;;;4942281;28;46581;-78
2023/12/18 07:39:08;;;;;;;23.50;10.47;;;0.50;61.30;;;;;;4943220;28;46296;-78
2023/12/18 07:41:34;;;;;;;26.83;11.70;;;0.60;61.40;;;;;;4938463;28;48277;-77
2023/12/18 07:44:00;;;;;;;15.95;7.63;;;0.60;61.40;;;;;;4935665;28;46719;-77
2023/12/18 07:46:26;;;;;;;13.97;6.40;;;0.60;61.30;;;;;;4933928;28;46483;-79
2023/12/18 07:48:53;;;;;;;7.70;4.25;;;0.60;61.40;;;;;;4938521;28;46427;-80
2023/12/18 07:51:19;;;;;;;9.63;4.20;;;0.70;61.80;;;;;;4932649;28;46689;-79
2023/12/18 07:53:44;;;;;;;5.30;3.50;;;0.70;61.40;;;;;;4936666;28;46906;-80
2023/12/18 07:56:10;;;;;;;10.27;5.00;;;0.70;61.40;;;;;;4936980;28;46777;-79
2023/12/18 07:58:35;;;;;;;5.97;3.90;;;0.80;61.40;;;;;;4937522;28;47779;-80
2023/12/18 08:01:03;;;;;;;4.70;2.80;;;0.80;61.30;;;;;;4934821;28;46757;-77
2023/12/18 08:03:29;;;;;;;6.78;3.67;;;0.90;61.40;;;;;;4936928;28;46435;-77
2023/12/18 08:05:54;;;;;;;6.73;3.70;;;0.80;61.60;;;;;;4934709;28;46623;-78
2023/12/18 08:08:20;;;;;;;8.00;4.40;;;0.90;61.80;;;;;;4938641;28;46695;-76
2023/12/18 08:10:45;;;;;;;3.93;2.83;;;1.00;61.70;;;;;;4932663;28;46167;-77
2023/12/18 08:13:11;;;;;;;8.80;4.30;;;1.10;61.70;;;;;;4937943;28;46379;-77
2023/12/18 08:15:37;;;;;;;6.67;3.70;;;1.20;61.60;;;;;;4938544;28;47448;-77
2023/12/18 08:18:02;;;;;;;7.00;3.83;;;1.30;61.30;;;;;;4939511;28;46947;-78
2023/12/18 08:20:28;;;;;;;9.23;4.57;;;1.40;61.10;;;;;;4939357;28;47575;-77
2023/12/18 08:22:53;;;;;;;8.30;5.10;;;1.50;60.90;;;;;;4939850;28;46401;-79
2023/12/18 08:25:21;;;;;;;6.57;4.60;;;1.60;60.80;;;;;;4939320;28;46436;-79
2023/12/18 08:27:46;;;;;;;18.27;4.70;;;1.80;60.60;;;;;;4942285;28;46414;-77
2023/12/18 08:30:12;;;;;;;11.60;6.00;;;1.80;60.40;;;;;;4940442;28;46168;-77
2023/12/18 08:32:38;;;;;;;8.53;6.20;;;1.90;60.50;;;;;;4940141;28;46607;-80
2023/12/18 08:35:06;;;;;;;19.77;10.45;;;2.00;60.60;;;;;;4924617;28;46645;-79
2023/12/18 08:37:31;;;;;;;12.23;6.68;;;2.10;60.70;;;;;;4941470;28;46101;-79
2023/12/18 08:39:57;;;;;;;24.07;4.60;;;2.20;60.70;;;;;;4942590;28;47643;-76
2023/12/18 08:42:22;;;;;;;5.43;3.20;;;2.20;62.00;;;;;;4939828;28;46479;-77
2023/12/18 08:44:48;;;;;;;6.43;4.10;;;2.30;60.80;;;;;;4938767;28;46458;-79
2023/12/18 08:47:14;;;;;;;9.87;3.43;;;2.50;60.60;;;;;;4940205;28;46424;-81
2023/12/18 08:49:39;;;;;;;3.67;2.60;;;2.70;60.60;;;;;;4939180;28;46642;-81
2023/12/18 08:52:05;;;;;;;5.20;3.00;;;2.70;60.40;;;;;;4940653;28;46164;-78
2023/12/18 08:54:30;;;;;;;6.30;2.90;;;2.80;60.40;;;;;;4942834;28;46662;-77
2023/12/18 08:56:56;;;;;;;5.53;2.80;;;2.90;60.10;;;;;;4941156;28;46935;-79
2023/12/18 08:59:21;;;;;;;5.60;3.50;;;3.00;60.00;;;;;;4938319;28;48391;-77
2023/12/18 09:01:47;;;;;;;5.90;3.23;;;3.20;60.00;;;;;;4925171;28;46670;-77
2023/12/18 09:04:13;;;;;;;4.60;3.20;;;3.30;59.80;;;;;;4941850;28;46823;-79
2023/12/18 09:06:39;;;;;;;5.97;3.03;;;3.40;59.80;;;;;;4938976;28;46852;-77
2023/12/18 09:09:05;;;;;;;7.57;3.50;;;3.40;59.80;;;;;;4939498;28;48180;-77
2023/12/18 09:11:33;;;;;;;5.65;3.60;;;3.50;59.90;;;;;;4922007;28;46414;-78
2023/12/18 09:14:05;;;;;;;8.48;2.90;;;3.70;60.00;;;;;;4943179;28;46572;-77
2023/12/18 09:16:31;;;;;;;7.03;3.27;;;3.80;60.00;;;;;;4940658;28;46581;-80
2023/12/18 09:18:56;;;;;;;4.73;3.37;;;3.90;60.00;;;;;;4939022;28;46427;-77
2023/12/18 09:21:22;;;;;;;5.40;2.97;;;4.00;59.90;;;;;;4940803;28;46754;-78
2023/12/18 09:23:49;;;;;;;5.13;2.70;;;4.10;59.80;;;;;;4941808;28;45977;-80
2023/12/18 09:26:15;;;;;;;3.60;2.43;;;4.20;59.70;;;;;;4942589;28;46267;-83
2023/12/18 09:28:42;;;;;;;7.27;3.17;;;4.30;59.60;;;;;;4924556;28;48109;-81
2023/12/18 09:31:07;;;;;;;5.47;3.33;;;4.40;59.60;;;;;;4938256;28;45840;-81
2023/12/18 09:33:33;;;;;;;6.63;3.30;;;4.50;59.40;;;;;;4942164;28;47129;-81
2023/12/18 09:36:00;;;;;;;6.40;2.43;;;4.70;59.40;;;;;;4945160;28;46693;-78
2023/12/18 09:38:26;;;;;;;5.20;2.67;;;4.80;59.40;;;;;;4941130;28;47233;-77
2023/12/18 09:40:51;;;;;;;4.77;2.67;;;4.90;59.20;;;;;;4921981;28;47175;-78
2023/12/18 09:43:18;;;;;;;7.23;3.30;;;5.00;59.20;;;;;;4939922;28;47272;-79
2023/12/18 09:45:47;;;;;;;4.87;3.27;;;5.10;58.90;;;;;;4937573;28;46148;-78
2023/12/18 09:48:16;;;;;;;8.27;4.43;;;5.20;59.00;;;;;;4938115;28;46681;-79
2023/12/18 09:50:45;;;;;;;8.73;3.95;;;5.30;58.80;;;;;;4938427;28;46470;-78
2023/12/18 09:53:13;;;;;;;6.80;3.73;;;5.40;58.50;;;;;;4923070;28;46757;-80
2023/12/18 09:55:40;;;;;;;7.60;3.30;;;5.50;58.50;;;;;;4938014;28;47154;-78
2023/12/18 09:58:11;;;;;;;5.87;3.23;;;5.60;58.50;;;;;;4939582;28;48520;-77
2023/12/18 10:00:37;;;;;;;6.07;3.33;;;5.70;58.20;;;;;;4948429;28;46405;-76
2023/12/18 10:03:02;;;;;;;7.03;3.80;;;5.80;58.20;;;;;;4938502;28;46883;-76
2023/12/18 10:05:29;;;;;;;8.33;3.83;;;5.90;59.30;;;;;;4938008;28;46487;-78
2023/12/18 10:07:55;;;;;;;6.27;3.20;;;6.00;58.00;;;;;;4937820;28;47502;-78
2023/12/18 10:10:21;;;;;;;5.67;3.00;;;6.10;57.70;;;;;;4938736;28;46414;-75
2023/12/18 10:12:47;;;;;;;5.27;3.10;;;6.20;57.50;;;;;;4923263;28;46534;-78
2023/12/18 10:15:14;;;;;;;5.77;3.00;;;6.30;57.50;;;;;;4939705;28;46562;-77
2023/12/18 10:17:41;;;;;;;4.90;2.93;;;6.30;57.00;;;;;;4937971;28;47127;-77
2023/12/18 10:20:08;;;;;;;8.90;3.90;;;6.40;57.00;;;;;;4925156;28;46650;-79
2023/12/18 10:22:33;;;;;;;6.53;3.80;;;6.50;56.60;;;;;;4936735;28;46530;-77
2023/12/18 10:24:59;;;;;;;10.17;4.60;;;6.60;56.40;;;;;;4938960;28;46527;-78
2023/12/18 10:27:25;;;;;;;4.70;2.37;;;6.70;56.10;;;;;;4937684;28;47619;-79
2023/12/18 10:29:51;;;;;;;3.50;2.00;;;6.80;56.00;;;;;;4936853;28;46483;-80
2023/12/18 10:32:17;;;;;;;2.93;1.80;;;6.80;55.70;;;;;;4938856;28;46552;-80
2023/12/18 10:34:46;;;;;;;4.40;2.37;;;6.80;55.40;;;;;;4937939;28;46971;-79
2023/12/18 10:37:11;;;;;;;10.23;2.23;;;6.90;55.40;;;;;;4934459;28;47220;-79
2023/12/18 10:39:41;;;;;;;4.70;2.07;;;6.90;55.30;;;;;;4938306;28;46732;-80
2023/12/18 10:42:22;;;;;;;3.60;2.13;;;6.90;55.00;;;;;;4937915;28;47030;-79
2023/12/18 10:44:49;;;;;;;3.30;1.83;;;7.00;54.90;;;;;;4939245;28;47166;-78
2023/12/18 10:47:16;;;;;;;3.40;2.40;;;7.10;54.70;;;;;;4937631;28;47361;-77
2023/12/18 10:49:42;;;;;;;3.50;1.90;;;7.20;54.40;;;;;;4938762;28;46531;-77
2023/12/18 10:52:09;;;;;;;3.60;2.00;;;7.30;54.20;;;;;;4925241;28;46523;-80
2023/12/18 10:54:36;;;;;;;2.50;1.83;;;7.40;54.20;;;;;;4936888;28;46471;-79
2023/12/18 10:57:02;;;;;;;5.03;1.97;;;7.60;53.80;;;;;;4937939;28;46938;-75
2023/12/18 10:59:30;;;;;;;6.03;2.23;;;7.60;53.60;;;;;;4936022;28;46747;-77
2023/12/18 11:01:57;;;;;;;3.97;2.07;;;7.60;53.30;;;;;;4936285;28;46757;-78
2023/12/18 11:04:24;;;;;;;4.93;2.00;;;7.70;53.00;;;;;;4919508;28;46471;-77
2023/12/18 11:06:50;;;;;;;2.63;1.87;;;7.80;52.70;;;;;;4934889;28;48336;-79
2023/12/18 11:09:15;;;;;;;2.77;1.63;;;7.80;52.60;;;;;;4936895;28;46498;-77
2023/12/18 11:11:42;;;;;;;2.70;1.40;;;7.90;52.30;;;;;;4935854;28;46426;-76
2023/12/18 11:14:26;;;;;;;2.83;1.57;;;8.00;52.10;;;;;;4939913;28;46454;-79
2023/12/18 11:17:11;;;;;;;3.33;1.57;;;8.10;51.30;;;;;;4939731;28;47452;-79
2023/12/18 11:19:47;;;;;;;4.33;1.60;;;8.10;51.00;;;;;;4923572;28;46253;-77
2023/12/18 11:22:15;;;;;;;2.30;1.40;;;8.20;51.10;;;;;;4940529;28;46119;-79
2023/12/18 11:24:45;;;;;;;2.57;1.63;;;8.30;51.20;;;;;;4940707;28;46277;-79
2023/12/18 11:27:12;;;;;;;2.60;1.60;;;8.40;51.20;;;;;;4939961;28;46089;-81
2023/12/18 11:29:39;;;;;;;2.20;1.43;;;8.40;51.20;;;;;;4925196;28;46607;-80
2023/12/18 11:32:06;;;;;;;3.60;1.63;;;8.50;50.60;;;;;;4939092;28;46539;-77
2023/12/18 11:34:31;;;;;;;1.97;1.23;;;8.50;50.00;;;;;;4935029;28;47193;-78
2023/12/18 11:36:58;;;;;;;2.93;1.57;;;8.60;49.60;;;;;;4936816;28;47255;-78
2023/12/18 11:39:54;;;;;;;3.03;1.70;;;8.70;49.30;;;;;;4937229;28;46519;-79
2023/12/18 11:42:45;;;;;;;3.03;1.53;;;8.70;48.60;;;;;;4931404;28;46739;-79
2023/12/18 11:45:11;;;;;;;2.77;1.40;;;8.80;47.90;;;;;;4937859;28;46448;-80
2023/12/18 11:47:39;;;;;;;2.67;1.40;;;8.80;47.70;;;;;;4937338;28;46786;-79
2023/12/18 11:50:06;;;;;;;3.10;1.63;;;8.80;47.40;;;;;;4938290;28;46905;-80
2023/12/18 11:52:32;;;;;;;3.67;1.30;;;8.90;47.20;;;;;;4935665;28;45938;-79
2023/12/18 11:54:57;;;;;;;4.93;1.10;;;8.90;46.60;;;;;;4947116;28;46811;-81
2023/12/18 11:57:23;;;;;;;2.13;1.20;;;9.00;46.40;;;;;;4936295;28;48015;-79
2023/12/18 11:59:49;;;;;;;3.20;1.40;;;9.00;46.10;;;;;;4938294;28;46182;-81
2023/12/18 12:02:16;;;;;;;4.30;1.50;;;9.00;45.70;;;;;;4937437;28;46550;-78
2023/12/18 12:04:42;;;;;;;2.37;1.37;;;9.00;45.40;;;;;;4936949;28;46908;-80
2023/12/18 12:07:11;;;;;;;3.63;1.53;;;9.00;45.00;;;;;;4935898;28;46565;-78
2023/12/18 12:09:37;;;;;;;3.23;1.40;;;9.10;44.70;;;;;;4931920;28;46443;-79
2023/12/18 12:12:02;;;;;;;7.50;3.00;;;9.10;44.30;;;;;;4935151;28;47214;-78
2023/12/18 12:14:28;;;;;;;16.30;7.43;;;9.10;44.00;;;;;;4939325;28;46524;-80
2023/12/18 12:17:03;;;;;;;13.60;6.57;;;9.20;43.90;;;;;;4950736;28;46786;-80
2023/12/18 12:19:36;;;;;;;4.70;2.33;;;9.20;43.50;;;;;;4950353;28;46495;-78
2023/12/18 12:22:01;;;;;;;8.90;3.60;;;9.20;43.30;;;;;;4944336;28;46503;-78
2023/12/18 12:24:27;;;;;;;7.80;3.50;;;9.20;43.10;;;;;;4938003;28;46648;-77
2023/12/18 12:26:54;;;;;;;2.43;1.50;;;9.30;42.90;;;;;;4919602;28;48283;-78
2023/12/18 12:29:19;;;;;;;3.40;1.30;;;9.40;42.60;;;;;;4937414;28;47665;-78
2023/12/18 12:31:45;;;;;;;2.80;1.20;;;9.50;42.30;;;;;;4935402;28;46812;-78
2023/12/18 12:34:11;;;;;;;2.80;1.40;;;9.40;42.00;;;;;;4939502;28;46410;-79
2023/12/18 12:36:37;;;;;;;2.60;1.40;;;9.30;41.70;;;;;;4919753;28;48657;-78
2023/12/18 12:39:05;;;;;;;4.27;1.37;;;9.30;41.60;;;;;;4938544;28;46430;-77
2023/12/18 12:41:30;;;;;;;2.43;1.30;;;9.30;41.30;;;;;;4936056;28;46376;-76
2023/12/18 12:43:58;;;;;;;3.00;1.40;;;9.40;41.20;;;;;;4938817;28;46249;-78
2023/12/18 12:46:24;;;;;;;3.13;1.30;;;9.50;41.10;;;;;;4939755;28;46386;-78